ADDS METAR Data INFO
IDs: Format: Raw Decoded Include TAF

Data at: 0807 UTC 23 Jul 2018

KMHK 230752Z AUTO 05004KT 9SM CLR 22/18 A3003 RMK AO2 SLP157 T02170183 $
KMHK 230652Z AUTO 00000KT 9SM CLR 22/18 A3002 RMK AO2 SLP156 T02220183 $
KMHK 230552Z AUTO 01003KT 9SM CLR 23/18 A3003 RMK AO2 SLP161 T02330183 10311 20233 403170200 51015 $
KMHK 230452Z AUTO 03003KT 10SM CLR 24/18 A3003 RMK AO2 SLP159 T02390178 $
KMHK 230352Z AUTO 05005KT 10SM CLR 24/18 A3000 RMK AO2 SLP150 T02390183 $
KMHK 230252Z AUTO 03005KT 10SM CLR 26/18 A2999 RMK AO2 SLP146 T02610183 53015 $
KMHK 230152Z 04004KT 10SM CLR 27/19 A2995 RMK AO2 SLP133 T02720194 $
KMHK 230052Z 11004KT 10SM CLR 29/19 A2994 RMK AO2 SLP129 T02940189 $
KMHK 222352Z 11005KT 10SM CLR 31/18 A2995 RMK AO2 SLP130 T03110178 10317 20278 58011 $
KMHK 222252Z 08007KT 10SM CLR 31/18 A2996 RMK AO2 SLP134 T03110183 $
KMHK 222152Z VRB04KT 10SM CLR 31/17 A2997 RMK AO2 SLP140 T03110167 $
KMHK 222052Z 00000KT 10SM CLR 31/16 A2998 RMK AO2 SLP141 T03060161 56010 $
KMHK 221952Z 08005KT 10SM CLR 31/18 A2999 RMK AO2 SLP145 T03060178 $
KMHK 221852Z 08005KT 10SM CLR 29/19 A3000 RMK AO2 SLP148 T02890189 $
KMHK 221752Z COR 08005KT 10SM CLR 27/19 A3001 RMK AO2 SLP152 T02720189 10272 20211 58000 $
KMHK 221652Z 11005KT 10SM CLR 26/19 A3002 RMK AO2 SLP156 T02610194 $
KMHK 221552Z 09006KT 10SM CLR 25/19 A3003 RMK AO2 SLP158 T02500194 $
KMHK 221452Z 08007KT 10SM CLR 24/19 A3001 RMK AO2 SLP153 T02390189 58010 $
KMHK 221352Z 12004KT 10SM CLR 23/19 A3003 RMK AO2 SLP159 T02280194 $
KMHK 221252Z 00000KT 9SM FEW120 21/19 A3004 RMK AO2 SLP164 T02110194 $
KMHK 221152Z 34003KT 10SM CLR 21/18 A3004 RMK AO2 SLP163 T02110183 10233 20200 53010 $
KMHK 221052Z AUTO 07007KT 10SM CLR 21/19 A3000 RMK AO2 SLP147 T02110189 $
KMHK 220952Z AUTO 06005KT 10SM CLR 22/19 A3001 RMK AO2 SLP151 T02170189 $
KMHK 220852Z AUTO 04005KT 10SM CLR 21/19 A3001 RMK AO2 SLP152 T02110194 58006 $
KMHK 220752Z AUTO 00000KT 10SM CLR 22/19 A3003 RMK AO2 SLP157 T02170194 $
KMHK 220652Z AUTO 00000KT 10SM CLR 23/19 A3003 RMK AO2 SLP159 T02280194 $
KMHK 220552Z AUTO 02003KT 10SM CLR 23/19 A3003 RMK AO2 SLP157 T02330189 10317 20228 403330189 53012 $
KMHK 220452Z AUTO 00000KT 10SM CLR 23/18 A3001 RMK AO2 SLP150 T02280183 $
KMHK 220352Z AUTO 02003KT 10SM CLR 24/19 A3000 RMK AO2 SLP148 T02440189 $
KMHK 220252Z AUTO 35004KT 10SM CLR 25/19 A2999 RMK AO2 SLP146 T02500189 53005 $
KMHK 220152Z 01004KT 10SM CLR 27/19 A2998 RMK AO2 SLP143 T02670189 $
KMHK 220052Z 01004KT 10SM CLR 29/18 A2997 RMK AO2 SLP138 T02940183 $
KMHK 212352Z 01004KT 10SM CLR 32/18 A2998 RMK AO2 SLP141 T03170183 10333 20300 58008 $
KMHK 212252Z 35007KT 10SM CLR 33/17 A2999 RMK AO2 SLP144 T03280172 $
KMHK 212152Z VRB05KT 10SM CLR 33/17 A3000 RMK AO2 SLP147 T03330167 $
KMHK 212052Z VRB04KT 10SM CLR 32/18 A3000 RMK AO2 SLP149 T03220183 56012